createdAt,value
2018-11-21T05:00:51.639Z,1009.17
2018-11-21T05:01:51.502Z,1009.21
2018-11-21T05:03:44.247Z,1009.18
2018-11-21T05:04:44.121Z,1009.20
2018-11-21T05:06:36.793Z,1009.14
2018-11-21T05:07:36.660Z,1009.18
2018-11-21T05:09:29.341Z,1009.16
2018-11-21T05:10:29.220Z,1009.17
2018-11-21T05:12:21.890Z,1009.19
2018-11-21T05:13:21.761Z,1009.20
2018-11-21T05:15:14.423Z,1009.26
2018-11-21T05:16:14.342Z,1009.33
2018-11-21T05:18:06.987Z,1009.34
2018-11-21T05:19:06.856Z,1009.32
2018-11-21T05:20:59.538Z,1009.33
2018-11-21T05:21:59.427Z,1009.33
2018-11-21T05:23:52.122Z,1009.34
2018-11-21T05:24:51.963Z,1009.34
2018-11-21T05:26:44.625Z,1009.36
2018-11-21T05:27:44.515Z,1009.34
2018-11-21T05:29:37.194Z,1009.30
2018-11-21T05:30:37.062Z,1009.32
2018-11-21T05:32:29.762Z,1009.30
2018-11-21T05:33:29.610Z,1009.35
2018-11-21T05:35:22.271Z,1009.34
2018-11-21T05:36:22.171Z,1009.28
2018-11-21T05:38:14.841Z,1009.29
2018-11-21T05:39:14.691Z,1009.30
2018-11-21T05:41:07.360Z,1009.28
2018-11-21T05:42:07.315Z,1009.33
2018-11-21T05:43:59.929Z,1009.33
2018-11-21T05:44:59.782Z,1009.35
2018-11-21T05:46:53.755Z,1009.39
2018-11-21T05:47:52.347Z,1009.38
2018-11-21T05:49:45.055Z,1009.39
2018-11-21T05:50:45.044Z,1009.39
2018-11-21T05:52:37.857Z,1009.43
2018-11-21T05:53:37.445Z,1009.43
2018-11-21T05:55:30.141Z,1009.46
2018-11-21T05:56:30.011Z,1009.51
2018-11-21T05:58:22.674Z,1009.59
2018-11-21T05:59:22.559Z,1009.57
2018-11-21T06:01:15.232Z,1009.67
2018-11-21T06:02:15.122Z,1009.62
2018-11-21T06:04:07.760Z,1009.66
2018-11-21T06:05:07.645Z,1009.70
2018-11-21T06:07:00.331Z,1009.69
2018-11-21T06:08:00.420Z,1009.70
2018-11-21T06:09:52.873Z,1009.74
2018-11-21T06:10:52.740Z,1009.69
2018-11-21T06:12:45.411Z,1009.71
2018-11-21T06:13:45.287Z,1009.67
2018-11-21T06:15:37.969Z,1009.73
2018-11-21T06:16:37.839Z,1009.78
2018-11-21T06:18:30.500Z,1009.79
2018-11-21T06:19:30.377Z,1009.79
2018-11-21T06:21:23.061Z,1009.85
2018-11-21T06:22:22.927Z,1009.84
2018-11-21T06:24:15.589Z,1009.86
2018-11-21T06:25:15.477Z,1009.84
2018-11-21T06:27:08.153Z,1009.86
2018-11-21T06:28:08.026Z,1009.92
2018-11-21T06:30:00.681Z,1009.95
2018-11-21T06:31:00.567Z,1009.97
2018-11-21T06:32:53.239Z,1009.97
2018-11-21T06:33:53.118Z,1010.01
2018-11-21T06:35:45.780Z,1010.05
2018-11-21T06:36:45.653Z,1010.10
2018-11-21T06:38:38.325Z,1010.14
2018-11-21T06:39:38.209Z,1010.08
2018-11-21T06:41:30.875Z,1010.10
2018-11-21T06:42:30.749Z,1010.12
2018-11-21T06:44:23.410Z,1010.11
2018-11-21T06:45:23.288Z,1010.15
2018-11-21T06:47:15.970Z,1010.15
2018-11-21T06:48:15.837Z,1010.17
2018-11-21T06:50:08.498Z,1010.22
2018-11-21T06:51:08.380Z,1010.19
2018-11-21T06:53:01.061Z,1010.24
2018-11-21T06:54:00.918Z,1010.26
2018-11-21T06:55:53.614Z,1010.26
2018-11-21T06:56:53.467Z,1010.36
2018-11-21T06:58:46.133Z,1010.31
2018-11-21T06:59:46.013Z,1010.31
2018-11-21T07:01:38.689Z,1010.38
2018-11-21T07:02:38.564Z,1010.37
2018-11-21T07:04:31.219Z,1010.38
2018-11-21T07:05:31.102Z,1010.38
2018-11-21T07:07:23.777Z,1010.35
2018-11-21T07:08:23.651Z,1010.34
2018-11-21T07:10:16.303Z,1010.32
2018-11-21T07:11:16.193Z,1010.30
2018-11-21T07:13:11.266Z,1010.34
2018-11-21T07:14:08.735Z,1010.36
2018-11-21T07:16:01.399Z,1010.38
2018-11-21T07:17:01.283Z,1010.39
2018-11-21T07:18:53.958Z,1010.41
2018-11-21T07:19:53.830Z,1010.44
2018-11-21T07:21:46.510Z,1010.39
2018-11-21T07:22:46.375Z,1010.40
2018-11-21T07:24:39.035Z,1010.39
2018-11-21T07:25:38.919Z,1010.37
2018-11-21T07:27:31.591Z,1010.35
2018-11-21T07:28:31.464Z,1010.41
2018-11-21T07:30:24.124Z,1010.41
2018-11-21T07:31:24.002Z,1010.45
2018-11-21T07:33:16.685Z,1010.46
2018-11-21T07:34:16.549Z,1010.50
2018-11-21T07:36:09.210Z,1010.57
2018-11-21T07:37:09.093Z,1010.55
2018-11-21T07:39:01.778Z,1010.63
2018-11-21T07:40:01.644Z,1010.67
2018-11-21T07:41:54.295Z,1010.71
2018-11-21T07:42:54.184Z,1010.75
2018-11-21T07:44:46.857Z,1010.77
2018-11-21T07:45:46.723Z,1010.78
2018-11-21T07:47:39.413Z,1010.83
2018-11-21T07:48:39.287Z,1010.84
2018-11-21T07:50:31.943Z,1010.88
2018-11-21T07:51:31.834Z,1010.94
2018-11-21T07:53:24.509Z,1010.95
2018-11-21T07:54:24.370Z,1010.99
2018-11-21T07:56:17.026Z,1011.00
2018-11-21T07:57:16.917Z,1011.05
2018-11-21T07:59:09.588Z,1010.98
2018-11-21T08:00:09.456Z,1011.05
2018-11-21T08:02:02.126Z,1011.08
2018-11-21T08:03:02.009Z,1011.14
2018-11-21T08:04:54.683Z,1011.12
2018-11-21T08:05:54.548Z,1011.11
2018-11-21T08:07:47.231Z,1011.15
2018-11-21T08:08:47.099Z,1011.16
2018-11-21T08:10:39.765Z,1011.10
2018-11-21T08:11:39.638Z,1011.11
2018-11-21T08:13:32.312Z,1011.12
2018-11-21T08:14:32.188Z,1011.08
2018-11-21T08:16:24.856Z,1011.14
2018-11-21T08:17:24.739Z,1011.20
2018-11-21T08:19:17.412Z,1011.18
2018-11-21T08:20:17.279Z,1011.25
2018-11-21T08:22:09.947Z,1011.24
2018-11-21T08:23:09.827Z,1011.26
2018-11-21T08:25:03.146Z,1011.27
2018-11-21T08:26:02.376Z,1011.31
2018-11-21T08:27:55.028Z,1011.33
2018-11-21T08:28:54.912Z,1011.35
2018-11-21T08:30:47.591Z,1011.36
2018-11-21T08:31:47.460Z,1011.38
2018-11-21T08:33:40.121Z,1011.28
2018-11-21T08:34:40.005Z,1011.34
2018-11-21T08:36:32.687Z,1011.48
2018-11-21T08:37:32.547Z,1011.45
2018-11-21T08:39:25.218Z,1011.42
2018-11-21T08:40:25.099Z,1011.46
2018-11-21T08:42:17.774Z,1011.43
2018-11-21T08:43:17.645Z,1011.48
2018-11-21T08:45:10.325Z,1011.47
2018-11-21T08:46:10.190Z,1011.47
2018-11-21T08:48:02.869Z,1011.42
2018-11-21T08:49:02.740Z,1011.40
2018-11-21T08:50:55.412Z,1011.37
2018-11-21T08:51:55.277Z,1011.44
2018-11-21T08:53:47.941Z,1011.37
2018-11-21T08:54:47.821Z,1011.45
2018-11-21T08:56:40.514Z,1011.40
2018-11-21T08:57:40.381Z,1011.44
2018-11-21T08:59:33.043Z,1011.36
2018-11-21T09:00:32.927Z,1011.32
2018-11-21T09:02:25.622Z,1011.34
2018-11-21T09:03:25.495Z,1011.37
2018-11-21T09:05:18.259Z,1011.41
2018-11-21T09:06:18.123Z,1011.52
2018-11-21T09:08:10.788Z,1011.57
2018-11-21T09:09:10.672Z,1011.58
2018-11-21T09:11:03.428Z,1011.57
2018-11-21T09:12:03.221Z,1011.52
2018-11-21T09:13:55.959Z,1011.56
2018-11-21T09:14:55.846Z,1011.64
2018-11-21T09:16:48.522Z,1011.66
2018-11-21T09:17:48.394Z,1011.73
2018-11-21T09:19:41.064Z,1011.78
2018-11-21T09:20:40.954Z,1011.75
2018-11-21T09:22:33.622Z,1011.77
2018-11-21T09:23:33.495Z,1011.80
2018-11-21T09:25:26.234Z,1011.84
2018-11-21T09:26:26.124Z,1011.90
2018-11-21T09:28:18.802Z,1011.84
2018-11-21T09:29:18.678Z,1011.86
2018-11-21T09:31:11.406Z,1011.94
2018-11-21T09:32:11.224Z,1011.92
2018-11-21T09:34:03.885Z,1011.85
2018-11-21T09:35:03.768Z,1011.85
2018-11-21T09:36:56.448Z,1011.85
2018-11-21T09:37:56.313Z,1011.88
2018-11-21T09:39:49.000Z,1011.81
2018-11-21T09:40:48.885Z,1011.76
2018-11-21T09:42:41.567Z,1011.75
2018-11-21T09:43:41.438Z,1011.77
2018-11-21T09:45:34.100Z,1011.85
2018-11-21T09:46:33.987Z,1011.83
2018-11-21T09:48:26.667Z,1011.86
2018-11-21T09:49:26.538Z,1011.96
2018-11-21T09:51:19.192Z,1011.93
2018-11-21T09:52:19.085Z,1011.90
2018-11-21T09:54:11.762Z,1011.99
2018-11-21T09:55:11.638Z,1011.99
2018-11-21T09:57:04.311Z,1012.02
2018-11-21T09:58:04.179Z,1012.01
2018-11-21T09:59:56.841Z,1012.11
2018-11-21T10:00:56.734Z,1011.96
2018-11-21T10:02:49.413Z,1011.97
2018-11-21T10:03:49.286Z,1011.98
2018-11-21T10:05:41.950Z,1012.04
2018-11-21T10:06:41.839Z,1012.07
2018-11-21T10:08:34.512Z,1012.02
2018-11-21T10:09:34.394Z,1012.04
2018-11-21T10:11:27.049Z,1012.07
2018-11-21T10:12:26.935Z,1012.08
2018-11-21T10:14:19.638Z,1012.12
2018-11-21T10:15:19.514Z,1012.16
2018-11-21T10:17:12.188Z,1012.18
2018-11-21T10:18:12.069Z,1012.20
2018-11-21T10:20:05.249Z,1012.15
2018-11-21T10:21:05.117Z,1012.11
2018-11-21T10:22:57.800Z,1012.04
2018-11-21T10:23:57.672Z,1012.08
2018-11-21T10:25:50.330Z,1012.11
2018-11-21T10:26:50.223Z,1012.19
2018-11-21T10:28:42.902Z,1012.22
2018-11-21T10:29:42.762Z,1012.22
2018-11-21T10:31:35.426Z,1012.17
2018-11-21T10:32:35.305Z,1012.20
2018-11-21T10:34:28.005Z,1012.23
2018-11-21T10:35:27.876Z,1012.23
2018-11-21T10:37:21.039Z,1012.25
2018-11-21T10:38:20.923Z,1012.21
2018-11-21T10:40:13.604Z,1012.22
2018-11-21T10:41:13.477Z,1012.21
2018-11-21T10:43:06.138Z,1012.30
2018-11-21T10:44:06.020Z,1012.25
2018-11-21T10:45:58.703Z,1012.26
2018-11-21T10:46:58.568Z,1012.28
2018-11-21T10:48:51.262Z,1012.31
2018-11-21T10:49:51.125Z,1012.28
2018-11-21T10:51:43.785Z,1012.33
2018-11-21T10:52:43.670Z,1012.36
2018-11-21T10:54:36.349Z,1012.28
2018-11-21T10:55:36.219Z,1012.32
2018-11-21T10:57:28.888Z,1012.26
2018-11-21T10:58:28.773Z,1012.30
2018-11-21T11:00:21.460Z,1012.22
2018-11-21T11:01:21.324Z,1012.24
2018-11-21T11:03:13.987Z,1012.21
2018-11-21T11:04:13.879Z,1012.17
2018-11-21T11:06:06.549Z,1012.20
2018-11-21T11:07:06.429Z,1012.17
2018-11-21T11:08:59.089Z,1012.20
2018-11-21T11:10:00.142Z,1012.15
2018-11-21T11:11:51.658Z,1012.14
2018-11-21T11:12:51.523Z,1012.12
2018-11-21T11:14:44.186Z,1012.11
2018-11-21T11:15:44.073Z,1012.14
2018-11-21T11:17:36.822Z,1012.29
2018-11-21T11:18:36.650Z,1012.27
2018-11-21T11:20:29.418Z,1012.38
2018-11-21T11:21:29.276Z,1012.40
2018-11-21T11:23:21.941Z,1012.43
2018-11-21T11:24:21.838Z,1012.42
2018-11-21T11:26:14.974Z,1012.40
2018-11-21T11:27:14.843Z,1012.43
2018-11-21T11:29:07.535Z,1012.42
2018-11-21T11:30:07.427Z,1012.43
2018-11-21T11:32:00.123Z,1012.46
2018-11-21T11:33:00.097Z,1012.47
2018-11-21T11:34:52.688Z,1012.53
2018-11-21T11:35:52.584Z,1012.52
2018-11-21T11:37:45.329Z,1012.45
2018-11-21T11:38:45.163Z,1012.50
2018-11-21T11:40:37.861Z,1012.56
2018-11-21T11:41:37.738Z,1012.56
2018-11-21T11:43:30.507Z,1012.57
2018-11-21T11:44:30.347Z,1012.54
2018-11-21T11:46:23.007Z,1012.53
2018-11-21T11:47:22.889Z,1012.58
2018-11-21T11:49:15.570Z,1012.60
2018-11-21T11:50:15.447Z,1012.57
2018-11-21T11:52:08.115Z,1012.59
2018-11-21T11:53:08.047Z,1012.57
2018-11-21T11:55:00.683Z,1012.64
2018-11-21T11:56:00.591Z,1012.62
2018-11-21T11:57:53.297Z,1012.61
2018-11-21T11:58:53.132Z,1012.65
2018-11-21T12:00:45.815Z,1012.58
2018-11-21T12:01:45.683Z,1012.60
2018-11-21T12:03:38.342Z,1012.53
2018-11-21T12:04:38.237Z,1012.53
2018-11-21T12:06:30.908Z,1012.48
2018-11-21T12:07:30.784Z,1012.46
2018-11-21T12:09:23.443Z,1012.44
2018-11-21T12:10:23.328Z,1012.42
2018-11-21T12:12:16.012Z,1012.49
2018-11-21T12:13:15.883Z,1012.42
2018-11-21T12:15:08.585Z,1012.38
2018-11-21T12:16:08.446Z,1012.41
2018-11-21T12:18:01.190Z,1012.41
2018-11-21T12:19:01.044Z,1012.35
2018-11-21T12:20:53.707Z,1012.37
2018-11-21T12:21:53.594Z,1012.39
2018-11-21T12:23:46.269Z,1012.44
2018-11-21T12:24:46.155Z,1012.42
2018-11-21T12:26:38.819Z,1012.49
2018-11-21T12:27:38.702Z,1012.43
2018-11-21T12:29:31.351Z,1012.56
2018-11-21T12:30:31.245Z,1012.56
2018-11-21T12:32:23.917Z,1012.47
2018-11-21T12:33:23.792Z,1012.49
2018-11-21T12:35:16.452Z,1012.47
2018-11-21T12:36:16.338Z,1012.46
2018-11-21T12:38:09.019Z,1012.43
2018-11-21T12:39:08.892Z,1012.48
2018-11-21T12:41:01.558Z,1012.47
2018-11-21T12:42:01.451Z,1012.55
2018-11-21T12:43:54.121Z,1012.57
2018-11-21T12:44:53.994Z,1012.58
2018-11-21T12:46:46.648Z,1012.53
2018-11-21T12:47:46.537Z,1012.57
2018-11-21T12:49:39.219Z,1012.54
2018-11-21T12:50:39.090Z,1012.55
2018-11-21T12:52:31.750Z,1012.53
2018-11-21T12:53:31.636Z,1012.53
2018-11-21T12:55:24.336Z,1012.51
2018-11-21T12:56:24.182Z,1012.47
2018-11-21T12:58:16.850Z,1012.47
2018-11-21T12:59:16.732Z,1012.44
2018-11-21T13:01:09.411Z,1012.50
2018-11-21T13:02:09.279Z,1012.51
2018-11-21T13:04:02.008Z,1012.44
2018-11-21T13:05:01.979Z,1012.47
2018-11-21T13:06:54.543Z,1012.49
2018-11-21T13:07:54.418Z,1012.51
2018-11-21T13:09:47.084Z,1012.51
2018-11-21T13:10:46.967Z,1012.55
2018-11-21T13:12:39.946Z,1012.55
2018-11-21T13:13:39.698Z,1012.58
2018-11-21T13:15:32.403Z,1012.59
2018-11-21T13:16:32.258Z,1012.58
2018-11-21T13:18:24.924Z,1012.59
2018-11-21T13:19:24.810Z,1012.58
2018-11-21T13:21:17.485Z,1012.54
2018-11-21T13:22:17.361Z,1012.51
2018-11-21T13:24:10.020Z,1012.59
2018-11-21T13:25:09.908Z,1012.57
2018-11-21T13:27:02.582Z,1012.58
2018-11-21T13:28:02.454Z,1012.57
2018-11-21T13:29:55.137Z,1012.53
2018-11-21T13:30:54.997Z,1012.53
2018-11-21T13:32:48.357Z,1012.54
2018-11-21T13:33:47.577Z,1012.47
2018-11-21T13:35:40.277Z,1012.55
2018-11-21T13:36:40.125Z,1012.53
2018-11-21T13:38:32.833Z,1012.54
2018-11-21T13:39:32.667Z,1012.56
2018-11-21T13:41:25.324Z,1012.60
2018-11-21T13:42:30.338Z,1012.61
2018-11-21T13:44:17.891Z,1012.68
2018-11-21T13:45:17.756Z,1012.66
2018-11-21T13:47:10.421Z,1012.75
2018-11-21T13:48:10.301Z,1012.68
2018-11-21T13:50:02.985Z,1012.67
2018-11-21T13:51:02.849Z,1012.67
2018-11-21T13:52:55.512Z,1012.66
2018-11-21T13:53:55.395Z,1012.60
2018-11-21T13:55:48.069Z,1012.69
2018-11-21T13:56:47.975Z,1012.69
2018-11-21T13:58:40.610Z,1012.77
2018-11-21T13:59:40.542Z,1012.81
2018-11-21T14:01:33.211Z,1012.86
2018-11-21T14:02:33.064Z,1012.87
2018-11-21T14:04:25.768Z,1012.84
2018-11-21T14:05:25.621Z,1012.83
2018-11-21T14:07:18.297Z,1012.82
2018-11-21T14:08:18.181Z,1012.83
2018-11-21T14:10:11.484Z,1012.84
2018-11-21T14:11:11.361Z,1012.83
2018-11-21T14:13:04.180Z,1012.74
2018-11-21T14:14:03.914Z,1012.64
2018-11-21T14:15:56.589Z,1012.57
2018-11-21T14:16:56.454Z,1012.53
2018-11-21T14:18:49.273Z,1012.50
2018-11-21T14:19:49.014Z,1012.54
2018-11-21T14:21:41.687Z,1012.55
2018-11-21T14:22:41.589Z,1012.54
2018-11-21T14:24:34.248Z,1012.54
2018-11-21T14:25:34.106Z,1012.51
2018-11-21T14:27:26.821Z,1012.50
2018-11-21T14:28:26.663Z,1012.50
2018-11-21T14:30:19.373Z,1012.55
2018-11-21T14:31:19.251Z,1012.56
2018-11-21T14:33:11.914Z,1012.68
2018-11-21T14:34:11.837Z,1012.67
2018-11-21T14:36:04.480Z,1012.74
2018-11-21T14:37:04.345Z,1012.73
2018-11-21T14:38:57.014Z,1012.77
2018-11-21T14:39:56.893Z,1012.81
2018-11-21T14:41:49.568Z,1012.86
2018-11-21T14:42:49.447Z,1012.91
2018-11-21T14:44:42.107Z,1012.97
2018-11-21T14:45:41.984Z,1012.96
2018-11-21T14:47:34.663Z,1012.97
2018-11-21T14:48:34.530Z,1013.02
2018-11-21T14:50:27.199Z,1013.10
2018-11-21T14:51:27.080Z,1013.15
2018-11-21T14:53:19.756Z,1013.17
2018-11-21T14:54:19.625Z,1013.18
2018-11-21T14:56:12.448Z,1013.15
2018-11-21T14:57:12.306Z,1013.16
2018-11-21T14:59:05.074Z,1013.15
2018-11-21T15:00:04.737Z,1013.14
2018-11-21T15:01:57.413Z,1013.19
2018-11-21T15:02:57.287Z,1013.25
2018-11-21T15:04:49.942Z,1013.22
2018-11-21T15:05:49.829Z,1013.24
2018-11-21T15:07:42.671Z,1013.21
2018-11-21T15:08:42.373Z,1013.20
2018-11-21T15:10:35.037Z,1013.17
2018-11-21T15:11:34.918Z,1013.16
2018-11-21T15:13:27.598Z,1013.20
2018-11-21T15:14:27.489Z,1013.17
2018-11-21T15:16:20.184Z,1013.18
2018-11-21T15:17:20.019Z,1013.16
2018-11-21T15:19:12.677Z,1013.20
2018-11-21T15:20:12.571Z,1013.17
2018-11-21T15:22:05.236Z,1013.28
2018-11-21T15:23:05.110Z,1013.23
2018-11-21T15:24:57.771Z,1013.29
2018-11-21T15:25:57.652Z,1013.33
2018-11-21T15:27:50.331Z,1013.27
2018-11-21T15:28:50.216Z,1013.33
2018-11-21T15:30:42.858Z,1013.27
2018-11-21T15:31:42.744Z,1013.33
2018-11-21T15:33:35.427Z,1013.28
2018-11-21T15:34:35.294Z,1013.26
2018-11-21T15:36:27.957Z,1013.22
2018-11-21T15:37:27.835Z,1013.17
2018-11-21T15:39:20.516Z,1013.17
2018-11-21T15:40:20.391Z,1013.15
2018-11-21T15:42:13.070Z,1013.12
2018-11-21T15:43:12.944Z,1013.15
2018-11-21T15:45:05.602Z,1013.18
2018-11-21T15:46:05.494Z,1013.20
2018-11-21T15:47:58.157Z,1013.16
2018-11-21T15:48:58.037Z,1013.17
2018-11-21T15:50:50.692Z,1013.13
2018-11-21T15:51:50.581Z,1013.15
2018-11-21T15:53:43.252Z,1013.19
2018-11-21T15:54:43.120Z,1013.18
2018-11-21T15:56:35.787Z,1013.29
2018-11-21T15:57:35.669Z,1013.30
2018-11-21T15:59:28.370Z,1013.40
2018-11-21T16:00:28.212Z,1013.39
2018-11-21T16:02:20.871Z,1013.45
2018-11-21T16:03:20.760Z,1013.43
2018-11-21T16:05:13.444Z,1013.52
2018-11-21T16:06:13.308Z,1013.45
2018-11-21T16:08:05.975Z,1013.40
2018-11-21T16:09:05.863Z,1013.41
2018-11-21T16:10:58.780Z,1013.47
2018-11-21T16:11:58.419Z,1013.42
2018-11-21T16:13:51.078Z,1013.46
2018-11-21T16:14:50.965Z,1013.47
2018-11-21T16:16:43.644Z,1013.45
2018-11-21T16:17:43.516Z,1013.44
2018-11-21T16:19:36.173Z,1013.48
2018-11-21T16:20:36.062Z,1013.49
2018-11-21T16:22:28.748Z,1013.51
2018-11-21T16:23:28.616Z,1013.53
2018-11-21T16:25:21.276Z,1013.53
2018-11-21T16:26:21.162Z,1013.53
2018-11-21T16:28:13.831Z,1013.61
2018-11-21T16:29:13.705Z,1013.63
2018-11-21T16:31:06.366Z,1013.70
2018-11-21T16:32:06.253Z,1013.62
2018-11-21T16:33:58.921Z,1013.60
2018-11-21T16:34:58.795Z,1013.57
2018-11-21T16:36:51.456Z,1013.63
2018-11-21T16:37:51.340Z,1013.65
2018-11-21T16:39:44.025Z,1013.67
2018-11-21T16:40:43.883Z,1013.69
2018-11-21T16:42:36.551Z,1013.74
2018-11-21T16:43:36.429Z,1013.74
2018-11-21T16:45:29.105Z,1013.79
2018-11-21T16:46:28.976Z,1013.81
2018-11-21T16:48:21.638Z,1013.74
2018-11-21T16:49:21.551Z,1013.76
2018-11-21T16:51:14.209Z,1013.78
2018-11-21T16:52:14.085Z,1013.77
2018-11-21T16:54:06.747Z,1013.76
2018-11-21T16:55:06.672Z,1013.75
2018-11-21T16:56:59.307Z,1013.84
2018-11-21T16:57:59.174Z,1013.86
2018-11-21T16:59:51.839Z,1013.87
2018-11-21T17:00:51.725Z,1013.83
2018-11-21T17:02:44.405Z,1013.82
2018-11-21T17:03:44.277Z,1013.88
2018-11-21T17:05:36.937Z,1013.82
2018-11-21T17:06:36.826Z,1013.80
2018-11-21T17:08:29.502Z,1013.84
2018-11-21T17:09:29.377Z,1013.84
2018-11-21T17:11:22.037Z,1013.85
2018-11-21T17:12:21.921Z,1013.86
2018-11-21T17:14:14.594Z,1013.89
2018-11-21T17:15:14.461Z,1013.90
2018-11-21T17:17:07.126Z,1013.88
2018-11-21T17:18:07.010Z,1013.83
2018-11-21T17:19:59.688Z,1013.87
2018-11-21T17:20:59.562Z,1013.93
2018-11-21T17:22:52.228Z,1013.91
2018-11-21T17:23:52.113Z,1013.90
2018-11-21T17:25:44.791Z,1013.95
2018-11-21T17:26:44.662Z,1013.85
2018-11-21T17:28:37.329Z,1013.93
2018-11-21T17:29:37.212Z,1013.96
2018-11-21T17:31:29.896Z,1013.90
2018-11-21T17:32:29.755Z,1013.89
2018-11-21T17:34:22.430Z,1013.92
2018-11-21T17:35:22.312Z,1013.95
2018-11-21T17:37:15.016Z,1013.98
2018-11-21T17:38:14.866Z,1014.02
2018-11-21T17:40:07.526Z,1014.04
2018-11-21T17:41:07.413Z,1014.03
2018-11-21T17:43:00.088Z,1014.09
2018-11-21T17:43:59.966Z,1014.12
2018-11-21T17:45:52.631Z,1014.05
2018-11-21T17:46:52.524Z,1014.08
2018-11-21T17:48:45.196Z,1014.11
2018-11-21T17:51:37.720Z,1014.09
2018-11-21T17:52:37.612Z,1014.09
2018-11-21T17:54:30.293Z,1014.04
2018-11-21T17:55:30.158Z,1014.07
2018-11-21T17:57:27.933Z,1014.06
2018-11-21T17:58:22.706Z,1014.04
2018-11-21T18:00:15.400Z,1014.04
2018-11-21T18:01:15.321Z,1013.99
2018-11-21T18:03:07.909Z,1013.97
2018-11-21T18:04:07.803Z,1013.98
2018-11-21T18:06:00.472Z,1013.96
2018-11-21T18:07:00.342Z,1014.02
2018-11-21T18:08:53.010Z,1014.04
2018-11-21T18:09:52.898Z,1013.96
2018-11-21T18:11:45.570Z,1014.03
2018-11-21T18:12:45.447Z,1014.00
2018-11-21T18:14:38.113Z,1014.10
2018-11-21T18:15:37.993Z,1014.01
2018-11-21T18:17:30.676Z,1014.08
2018-11-21T18:18:30.546Z,1014.12
2018-11-21T18:20:23.201Z,1014.16
2018-11-21T18:21:23.089Z,1014.11
2018-11-21T18:23:15.775Z,1014.09
2018-11-21T18:24:15.635Z,1014.12
2018-11-21T18:26:08.295Z,1014.11
2018-11-21T18:27:08.179Z,1014.14
2018-11-21T18:29:00.862Z,1014.13
2018-11-21T18:30:00.731Z,1014.17
2018-11-21T18:31:53.400Z,1014.17
2018-11-21T18:32:53.275Z,1014.15
2018-11-21T18:34:46.062Z,1014.21
2018-11-21T18:35:45.817Z,1014.26
2018-11-21T18:37:38.524Z,1014.31
2018-11-21T18:38:38.365Z,1014.23
2018-11-21T18:40:31.037Z,1014.21
2018-11-21T18:41:30.903Z,1014.21
2018-11-21T18:43:23.569Z,1014.22
2018-11-21T18:44:23.470Z,1014.18
2018-11-21T18:46:16.128Z,1014.28
2018-11-21T18:47:16.000Z,1014.33
2018-11-21T18:49:08.651Z,1014.33
2018-11-21T18:50:11.195Z,1014.27
2018-11-21T18:52:01.213Z,1014.28
2018-11-21T18:53:01.078Z,1014.30
2018-11-21T18:54:53.739Z,1014.25
2018-11-21T18:55:53.620Z,1014.31
2018-11-21T18:57:46.354Z,1014.28
2018-11-21T18:58:46.215Z,1014.35
2018-11-21T19:00:38.869Z,1014.37
2018-11-21T19:01:38.754Z,1014.34
2018-11-21T19:03:31.432Z,1014.36
2018-11-21T19:04:31.310Z,1014.34
2018-11-21T19:06:24.002Z,1014.35
2018-11-21T19:07:23.855Z,1014.33
2018-11-21T19:09:16.546Z,1014.38
2018-11-21T19:10:16.417Z,1014.41
2018-11-21T19:12:09.073Z,1014.40
2018-11-21T19:13:08.960Z,1014.43
2018-11-21T19:15:01.667Z,1014.47
2018-11-21T19:16:01.514Z,1014.44
2018-11-21T19:17:54.174Z,1014.42
2018-11-21T19:18:54.062Z,1014.45
2018-11-21T19:20:46.736Z,1014.46
2018-11-21T19:21:46.605Z,1014.47
2018-11-21T19:23:39.291Z,1014.54
2018-11-21T19:24:39.171Z,1014.51
2018-11-21T19:26:31.829Z,1014.51
2018-11-21T19:27:31.705Z,1014.52
2018-11-21T19:29:24.382Z,1014.54
2018-11-21T19:30:24.299Z,1014.57
2018-11-21T19:32:16.936Z,1014.63
2018-11-21T19:33:16.812Z,1014.65
2018-11-21T19:35:09.465Z,1014.67
2018-11-21T19:36:09.352Z,1014.68
2018-11-21T19:38:02.053Z,1014.70
2018-11-21T19:39:01.921Z,1014.66
2018-11-21T19:40:54.576Z,1014.75
2018-11-21T19:41:54.487Z,1014.72
2018-11-21T19:43:47.161Z,1014.76
2018-11-21T19:44:47.218Z,1014.75
2018-11-21T19:46:39.688Z,1014.78
2018-11-21T19:47:39.556Z,1014.77
2018-11-21T19:49:33.404Z,1014.82
2018-11-21T19:50:32.600Z,1014.79
2018-11-21T19:52:25.259Z,1014.72
2018-11-21T19:53:25.497Z,1014.78
2018-11-21T19:55:17.873Z,1014.79
2018-11-21T19:56:17.710Z,1014.80
2018-11-21T19:58:10.345Z,1014.81
2018-11-21T19:59:10.232Z,1014.83
2018-11-21T20:01:02.931Z,1014.80
2018-11-21T20:02:02.786Z,1014.76
2018-11-21T20:03:55.457Z,1014.74
2018-11-21T20:04:55.336Z,1014.75
2018-11-21T20:06:48.016Z,1014.77
2018-11-21T20:07:47.882Z,1014.74
2018-11-21T20:09:41.037Z,1014.79
2018-11-21T20:10:40.926Z,1014.83
2018-11-21T20:12:39.709Z,1014.78
2018-11-21T20:13:33.501Z,1014.78
2018-11-21T20:15:26.139Z,1014.77
2018-11-21T20:16:26.025Z,1014.81
2018-11-21T20:18:18.708Z,1014.85
2018-11-21T20:19:18.576Z,1014.79
2018-11-21T20:21:11.237Z,1014.76
2018-11-21T20:22:11.122Z,1014.73
2018-11-21T20:24:03.794Z,1014.77
2018-11-21T20:25:03.667Z,1014.77
2018-11-21T20:26:56.327Z,1014.79
2018-11-21T20:27:56.210Z,1014.81
2018-11-21T20:29:54.554Z,1014.75
2018-11-21T20:30:48.764Z,1014.78
2018-11-21T20:32:41.433Z,1014.78
2018-11-21T20:33:41.317Z,1014.74
2018-11-21T20:35:34.038Z,1014.73
2018-11-21T20:36:33.884Z,1014.79
2018-11-21T20:38:26.566Z,1014.76
2018-11-21T20:39:26.441Z,1014.79
2018-11-21T20:41:19.128Z,1014.82
2018-11-21T20:42:18.990Z,1014.82
2018-11-21T20:44:11.663Z,1014.86
2018-11-21T20:45:11.530Z,1014.83
2018-11-21T20:47:05.229Z,1014.82
2018-11-21T20:48:05.094Z,1014.81
2018-11-21T20:49:57.758Z,1014.79
2018-11-21T20:50:57.643Z,1014.82
2018-11-21T20:52:50.333Z,1014.88
2018-11-21T20:53:50.194Z,1014.90
2018-11-21T20:55:42.859Z,1014.86
2018-11-21T20:56:42.739Z,1014.87
2018-11-21T20:58:35.408Z,1014.87
2018-11-21T20:59:35.281Z,1014.86
2018-11-21T21:01:27.946Z,1014.93
2018-11-21T21:02:27.838Z,1014.85
2018-11-21T21:04:20.518Z,1014.84
2018-11-21T21:05:20.380Z,1014.86
2018-11-21T21:07:13.046Z,1014.83
2018-11-21T21:08:12.954Z,1014.87
2018-11-21T21:10:05.617Z,1014.81
2018-11-21T21:11:05.477Z,1014.87
2018-11-21T21:12:58.144Z,1014.85
2018-11-21T21:13:58.023Z,1014.88
2018-11-21T21:15:50.720Z,1014.87
2018-11-21T21:16:50.623Z,1014.88
2018-11-21T21:18:43.241Z,1014.85
2018-11-21T21:19:43.125Z,1014.89
2018-11-21T21:21:36.310Z,1014.83
2018-11-21T21:22:36.170Z,1014.84
2018-11-21T21:24:28.831Z,1014.84
2018-11-21T21:25:28.723Z,1014.82
2018-11-21T21:27:21.400Z,1014.84
2018-11-21T21:28:21.261Z,1014.80
2018-11-21T21:30:13.935Z,1014.82
2018-11-21T21:31:13.811Z,1014.84
2018-11-21T21:33:06.483Z,1014.82
2018-11-21T21:34:06.359Z,1014.80
2018-11-21T21:35:59.016Z,1014.80
2018-11-21T21:36:58.899Z,1014.81
2018-11-21T21:38:51.590Z,1014.82
2018-11-21T21:39:51.456Z,1014.82
2018-11-21T21:41:44.267Z,1014.85
2018-11-21T21:42:44.244Z,1014.88
2018-11-21T21:44:36.836Z,1014.89
2018-11-21T21:45:36.693Z,1014.88
2018-11-21T21:47:29.350Z,1014.92
2018-11-21T21:48:29.243Z,1014.92
2018-11-21T21:50:21.917Z,1014.96
2018-11-21T21:51:21.789Z,1014.91
2018-11-21T21:53:14.518Z,1014.92
2018-11-21T21:54:14.374Z,1014.93
2018-11-21T21:56:07.057Z,1014.97
2018-11-21T21:57:06.941Z,1014.95
2018-11-21T21:59:00.082Z,1014.99
2018-11-21T22:00:00.387Z,1014.98
2018-11-21T22:01:53.137Z,1014.95
2018-11-21T22:02:53.110Z,1015.04
2018-11-21T22:04:46.241Z,1014.98
2018-11-21T22:05:46.331Z,1014.98
2018-11-21T22:07:38.806Z,1015.02
2018-11-21T22:08:38.860Z,1014.97
2018-11-21T22:10:31.341Z,1014.96
2018-11-21T22:11:31.223Z,1014.96
2018-11-21T22:13:24.589Z,1014.92
2018-11-21T22:14:24.303Z,1014.98
2018-11-21T22:16:17.116Z,1014.91
2018-11-21T22:17:16.854Z,1014.97
2018-11-21T22:19:09.553Z,1014.95
2018-11-21T22:20:09.389Z,1014.98
2018-11-21T22:22:02.108Z,1014.97
2018-11-21T22:23:02.019Z,1014.90
2018-11-21T22:24:54.670Z,1014.94